Granite, Iowa
Current Conditions -  °F | °C
As of 11:54 AM on Sunday 21 Dec 2014 (Local Time) from KLYV Reporting Station
Moderate Fog Moderate Fog  
Wind Chill: 28°   Ceiling: 200
Heat Index: 36°   Visibility: 0.25mi
Dew Point: 34°   Wind: 10mph
Humidity: 93%   Direction: 180°S
Pressure: 29.71"   Gusts: NA
Location:  43.4284°N, 96.4487°W
Report Text: KLYV 211754Z AUTO 18009KT 1/4SM FG OVC002 02/01 A2971 RMK AO2
Loading
Personal Weather Stations






























Interactive Weather Map New forecast layout! Learn more

10-Day Weather Forecast

Advertisements
Track Severe Weather on mobile